Time;durP1;ratioP1;P1;durP2;ratioP2;P2;SDS_P1;SDS_P2;PMS_P1;PMS_P2;Temp;Humidity;BMP_temperature;BMP_pressure;BME280_temperature;BME280_humidity;BME280_pressure;Samples;Min_cycle;Max_cycle;Signal;HPM_P1;HPM_P2
2022/06/13 00:01:41;;;;;;;10.57;2.90;;;;;;;14.98;70.64;101208.31;4995941;28;20648;-83
2022/06/13 00:04:10;;;;;;;8.95;3.00;;;;;;;14.92;70.67;101211.06;5006363;28;20041;-82
2022/06/13 00:06:37;;;;;;;8.15;2.72;;;;;;;14.85;72.22;101218.22;5013858;28;20096;-82
2022/06/13 00:09:08;;;;;;;17.52;3.50;;;;;;;14.80;71.61;101212.16;5009315;28;20049;-82
2022/06/13 00:11:37;;;;;;;10.82;3.25;;;;;;;14.78;72.47;101210.44;4997703;28;20041;-80
2022/06/13 00:14:05;;;;;;;7.03;2.97;;;;;;;14.75;72.21;101219.25;5010370;28;20049;-82
2022/06/13 00:16:32;;;;;;;4.93;2.30;;;;;;;14.70;72.34;101219.31;5024116;28;20041;-84
2022/06/13 00:18:59;;;;;;;9.32;2.85;;;;;;;14.65;72.47;101225.59;5005936;28;20438;-81
2022/06/13 00:21:31;;;;;;;12.88;3.97;;;;;;;14.65;72.87;101226.47;4993118;28;20579;-82
2022/06/13 00:24:01;;;;;;;9.48;3.65;;;;;;;14.63;72.99;101224.72;5005884;28;20699;-82
2022/06/13 00:26:32;;;;;;;9.05;2.88;;;;;;;14.63;72.60;101219.44;4995278;28;20483;-83
2022/06/13 00:29:01;;;;;;;7.88;2.65;;;;;;;14.61;72.93;101223.88;4994256;28;20595;-84
2022/06/13 00:31:29;;;;;;;7.97;3.25;;;;;;;14.61;73.07;101224.72;4989842;28;20111;-82
2022/06/13 00:33:56;;;;;;;6.50;2.65;;;;;;;14.61;72.68;101223.88;5025558;28;20466;-81
2022/06/13 00:36:24;;;;;;;8.38;3.30;;;;;;;14.59;73.08;101228.28;5012458;28;20388;-80
2022/06/13 00:39:02;;;;;;;10.00;2.53;;;;;;;14.59;72.97;101230.91;5018111;28;20124;-81
2022/06/13 00:41:34;;;;;;;8.57;3.10;;;;;;;14.58;73.16;101232.69;5007832;28;20148;-79
2022/06/13 00:44:03;;;;;;;4.63;2.55;;;;;;;14.60;73.16;101233.53;5008519;28;20107;-80
2022/06/13 00:46:35;;;;;;;6.95;2.70;;;;;;;14.60;73.40;101223.00;5011238;28;20041;-83
2022/06/13 00:49:15;;;;;;;6.70;3.30;;;;;;;14.70;73.03;101229.88;4985786;28;20055;-85
2022/06/13 00:51:54;;;;;;;7.35;3.35;;;;;;;14.75;72.79;101227.16;5016104;28;20041;-81
2022/06/13 00:54:22;;;;;;;5.72;2.42;;;;;;;14.79;72.45;101226.22;5003541;28;20430;-80
2022/06/13 00:56:51;;;;;;;9.50;2.40;;;;;;;14.79;72.27;101223.56;5016477;28;20087;-84
2022/06/13 00:59:22;;;;;;;7.05;2.97;;;;;;;14.75;72.52;101221.03;5027023;28;20037;-83
2022/06/13 01:01:49;;;;;;;13.75;3.80;;;;;;;14.66;72.86;101222.06;5020062;28;20041;-82
2022/06/13 01:04:17;;;;;;;11.13;3.38;;;;;;;14.55;73.50;101217.81;5009941;28;20558;-81
2022/06/13 01:06:48;;;;;;;16.83;4.75;;;;;;;14.47;73.81;101218.81;5029323;28;20048;-80
2022/06/13 01:11:16;;;;;;;7.22;3.03;;;;;;;14.37;74.44;101224.22;5031337;28;20048;-83
2022/06/13 01:12:08;;;;;;;5.18;2.75;;;;;;;14.25;74.77;101224.44;5025895;28;20037;-84
2022/06/13 01:15:19;;;;;;;8.75;2.95;;;;;;;14.12;76.14;101220.22;5023615;28;20530;-80
2022/06/13 01:17:56;;;;;;;8.82;2.78;;;;;;;14.00;76.00;101213.38;5022534;28;20107;-86
2022/06/13 01:20:35;;;;;;;5.63;2.70;;;;;;;13.92;76.75;101218.75;5017269;28;20037;-81
2022/06/13 01:23:27;;;;;;;15.00;3.17;;;;;;;13.86;76.97;101214.44;5009325;28;20064;-84
2022/06/13 01:26:20;;;;;;;11.05;3.42;;;;;;;13.82;77.13;101212.75;5012351;28;20061;-83
2022/06/13 01:29:23;;;;;;;10.75;3.45;;;;;;;13.77;78.72;101208.44;5015088;28;20065;-81
2022/06/13 01:32:25;;;;;;;12.10;3.30;;;;;;;13.79;78.10;101210.13;5009342;28;20132;-83
2022/06/13 01:35:25;;;;;;;6.20;3.28;;;;;;;13.80;77.85;101204.00;4991266;28;20593;-82
2022/06/13 01:38:13;;;;;;;6.97;3.53;;;;;;;13.82;78.37;101202.22;4992248;28;20050;-82
2022/06/13 01:41:01;;;;;;;9.15;3.03;;;;;;;13.87;78.38;101199.50;5010193;28;20072;-80
2022/06/13 01:43:45;;;;;;;10.20;3.80;;;;;;;13.90;78.04;101196.84;5012591;28;20051;-80
2022/06/13 01:46:35;;;;;;;4.90;2.42;;;;;;;13.84;77.72;101195.16;5015754;28;20056;-80
2022/06/13 01:49:12;;;;;;;7.22;3.83;;;;;;;13.72;78.48;101190.06;5015342;28;20046;-80
2022/06/13 01:52:04;;;;;;;7.63;3.13;;;;;;;13.60;79.07;101180.59;5007120;28;20045;-81
2022/06/13 01:54:55;;;;;;;12.93;4.05;;;;;;;13.52;80.04;101185.94;5028240;28;20068;-86
2022/06/13 01:57:46;;;;;;;5.05;2.83;;;;;;;13.48;79.85;101181.63;5011889;28;20076;-84
2022/06/13 02:00:19;;;;;;;7.82;3.00;;;;;;;13.43;80.28;101191.31;5014526;28;20043;-81
2022/06/13 02:03:11;;;;;;;9.85;3.47;;;;;;;13.39;80.99;101200.16;5006663;28;20063;-82
2022/06/13 02:05:58;;;;;;;8.13;2.58;;;;;;;13.35;81.20;101196.66;5011230;28;20064;-83
2022/06/13 02:08:39;;;;;;;9.70;3.42;;;;;;;13.32;80.77;101194.03;5010412;28;20168;-84
2022/06/13 02:11:21;;;;;;;10.30;2.80;;;;;;;13.28;81.42;101199.34;5006284;28;20068;-83
2022/06/13 02:13:58;;;;;;;9.55;3.90;;;;;;;13.24;82.17;101191.53;5013610;28;20480;-81
2022/06/13 02:16:35;;;;;;;7.22;3.15;;;;;;;13.20;82.76;101188.94;5012557;28;20054;-80
2022/06/13 02:19:17;;;;;;;9.40;3.53;;;;;;;13.19;83.38;101205.59;4991489;28;20051;-80
2022/06/13 02:21:58;;;;;;;10.07;4.75;;;;;;;13.18;84.04;101214.34;5018405;28;20127;-83
2022/06/13 02:24:37;;;;;;;7.85;3.97;;;;;;;13.14;84.10;101221.41;5009527;28;20060;-80
2022/06/13 02:27:07;;;;;;;7.10;3.50;;;;;;;13.10;84.44;101218.81;4996001;28;20049;-81
2022/06/13 02:29:55;;;;;;;12.50;3.55;;;;;;;13.04;85.02;101219.78;5014340;28;20043;-81
2022/06/13 02:32:32;;;;;;;6.70;3.38;;;;;;;12.95;86.14;101217.25;5011145;28;20048;-83
2022/06/13 02:35:13;;;;;;;8.70;3.50;;;;;;;12.90;86.90;101214.63;5006223;28;20048;-80
2022/06/13 02:37:55;;;;;;;10.80;4.57;;;;;;;12.83;87.75;101215.59;5014347;28;20052;-80
2022/06/13 02:40:29;;;;;;;7.63;3.75;;;;;;;12.82;88.46;101216.47;5008922;28;20057;-80
2022/06/13 02:43:22;;;;;;;10.60;2.97;;;;;;;12.83;89.10;101219.09;5004865;28;20049;-84
2022/06/13 02:45:58;;;;;;;6.93;3.88;;;;;;;12.86;88.85;101210.31;5001491;28;20053;-82
2022/06/13 02:48:43;;;;;;;11.73;4.55;;;;;;;12.88;89.08;101209.41;5015558;28;20551;-84
2022/06/13 02:51:23;;;;;;;13.15;4.32;;;;;;;12.91;88.48;101213.75;5024406;28;20064;-86
2022/06/13 02:54:05;;;;;;;5.70;3.38;;;;;;;12.88;88.42;101209.41;5014812;28;20053;-81
2022/06/13 02:57:24;;;;;;;10.20;4.00;;;;;;;12.85;88.49;101192.78;4997177;28;20044;-80
2022/06/13 03:00:22;;;;;;;7.90;4.40;;;;;;;12.78;88.79;101189.34;5028879;28;20045;-85
2022/06/13 03:03:01;;;;;;;8.57;3.83;;;;;;;12.75;89.07;101192.03;5002158;28;21252;-82
2022/06/13 03:05:58;;;;;;;12.93;3.65;;;;;;;12.72;88.66;101189.41;5024452;28;20042;-82
2022/06/13 03:08:46;;;;;;;8.27;4.00;;;;;;;12.72;88.64;101184.16;4984172;28;20052;-78
2022/06/13 03:12:03;;;;;;;14.38;4.60;;;;;;;12.75;89.24;101186.78;5001232;28;20056;-81
2022/06/13 03:14:56;;;;;;;9.45;3.70;;;;;;;12.87;88.40;101199.78;4971799;28;21163;-81
2022/06/13 03:17:44;;;;;;;5.85;3.33;;;;;;;12.91;87.41;101198.84;5011283;28;20145;-81
2022/06/13 03:20:24;;;;;;;8.35;3.40;;;;;;;12.89;87.21;101198.00;4989457;28;20164;-82
2022/06/13 03:22:58;;;;;;;12.40;4.25;;;;;;;12.87;87.55;101198.91;5006102;28;20044;-81
2022/06/13 03:25:46;;;;;;;11.27;3.92;;;;;;;12.87;87.68;101209.44;4995614;28;20045;-83
2022/06/13 03:28:22;;;;;;;11.30;3.83;;;;;;;12.90;87.91;101217.28;5004353;28;20054;-81
2022/06/13 03:31:42;;;;;;;7.65;3.97;;;;;;;12.90;88.14;101225.16;5013332;28;20964;-86
2022/06/13 03:34:17;;;;;;;9.52;3.88;;;;;;;12.85;89.03;101226.94;4997501;28;20802;-82
2022/06/13 03:37:10;;;;;;;9.48;3.85;;;;;;;12.81;89.15;101233.13;4973299;28;20053;-82
2022/06/13 03:39:52;;;;;;;8.05;3.92;;;;;;;12.81;89.39;101233.13;5009951;28;20056;-82
2022/06/13 03:42:34;;;;;;;10.93;4.32;;;;;;;12.85;89.12;101226.94;5003736;28;20049;-85
2022/06/13 03:45:09;;;;;;;8.23;3.70;;;;;;;12.89;88.37;101228.66;5011773;28;20044;-82
2022/06/13 03:47:50;;;;;;;7.70;4.18;;;;;;;12.99;87.64;101232.09;5015022;28;20532;-85
2022/06/13 03:50:38;;;;;;;7.40;3.55;;;;;;;13.07;87.08;101235.50;5004607;28;20053;-82
2022/06/13 03:53:18;;;;;;;9.40;3.83;;;;;;;13.13;86.17;101245.06;4987344;28;20053;-85
2022/06/13 03:55:54;;;;;;;9.23;3.55;;;;;;;13.16;85.43;101245.06;5008762;28;20115;-82
2022/06/13 03:58:53;;;;;;;12.30;4.03;;;;;;;13.24;85.43;101249.34;5007035;28;20050;-83
2022/06/13 04:01:31;;;;;;;11.57;4.93;;;;;;;13.36;83.99;101244.84;4997918;28;20050;-81
2022/06/13 04:04:02;;;;;;;9.45;3.50;;;;;;;13.39;82.92;101240.44;5006275;28;20452;-80
2022/06/13 04:06:36;;;;;;;7.18;3.30;;;;;;;13.39;82.83;101240.44;5007731;28;20053;-80
2022/06/13 04:09:13;;;;;;;4.38;3.03;;;;;;;13.46;82.73;101232.50;5004680;28;20653;-83
2022/06/13 04:12:49;;;;;;;17.10;3.75;;;;;;;13.54;82.09;101225.38;4997555;28;20046;-78
2022/06/13 04:15:48;;;;;;;6.57;3.95;;;;;;;13.63;81.12;101212.09;4987340;28;20069;-82
2022/06/13 04:18:51;;;;;;;7.60;3.35;;;;;;;13.64;80.55;101200.69;4990057;28;20045;-82
2022/06/13 04:21:44;;;;;;;10.18;3.47;;;;;;;13.53;80.43;101195.59;4990731;28;20060;-80
2022/06/13 04:24:54;;;;;;;8.13;4.25;;;;;;;13.49;80.47;101193.00;5017393;28;20060;-84
2022/06/13 04:27:53;;;;;;;7.70;3.28;;;;;;;13.51;80.46;101197.34;5025248;28;20037;-83
2022/06/13 04:30:34;;;;;;;7.05;2.95;;;;;;;13.59;80.12;101186.72;5025109;28;20053;-83
2022/06/13 04:33:17;;;;;;;8.02;3.50;;;;;;;13.68;79.93;101183.13;4983538;28;20050;-83
2022/06/13 04:35:46;;;;;;;6.50;3.33;;;;;;;13.73;79.86;101192.69;4991232;28;20056;-81
2022/06/13 04:38:16;;;;;;;12.55;3.88;;;;;;;13.80;79.73;101197.88;5004641;28;20098;-82
2022/06/13 04:40:54;;;;;;;11.18;3.88;;;;;;;13.87;79.03;101200.41;4995989;28;20050;-81
2022/06/13 04:43:27;;;;;;;11.23;4.03;;;;;;;13.89;78.79;101198.59;5021477;28;20058;-84
2022/06/13 04:46:01;;;;;;;8.13;3.72;;;;;;;13.94;78.64;101201.19;5025106;28;20051;-84
2022/06/13 04:48:28;;;;;;;15.35;3.60;;;;;;;13.94;78.09;101208.22;5014038;28;20042;-81
2022/06/13 04:51:02;;;;;;;7.80;3.17;;;;;;;13.92;78.15;101202.94;5010612;28;20041;-84
2022/06/13 04:53:58;;;;;;;9.07;3.40;;;;;;;13.89;78.50;101211.75;5003509;28;20061;-83
2022/06/13 04:56:25;;;;;;;9.05;3.67;;;;;;;13.94;78.20;101222.22;4994549;28;20136;-83
2022/06/13 04:58:55;;;;;;;9.25;3.33;;;;;;;13.99;77.77;101225.69;4982911;28;20050;-80
2022/06/13 05:01:48;;;;;;;10.88;3.25;;;;;;;14.03;77.37;101232.63;5010350;28;20050;-83
2022/06/13 05:04:21;;;;;;;13.65;5.85;;;;;;;14.05;76.41;101217.69;4997015;28;20477;-80
2022/06/13 05:06:53;;;;;;;14.10;4.57;;;;;;;14.06;76.67;101218.56;5005333;28;20041;-83
2022/06/13 05:09:52;;;;;;;13.43;4.80;;;;;;;14.12;76.14;101213.22;4989829;28;20755;-80
2022/06/13 05:12:41;;;;;;;14.57;5.45;;;;;;;14.20;75.64;101211.31;5008518;28;20080;-82
2022/06/13 05:15:30;;;;;;;8.27;3.55;;;;;;;14.29;74.51;101217.31;4994113;28;20049;-79
2022/06/13 05:18:13;;;;;;;7.45;4.20;;;;;;;14.33;74.56;101217.28;4994574;28;20063;-79
2022/06/13 05:21:03;;;;;;;7.50;3.28;;;;;;;14.42;74.25;101220.66;5030938;28;20048;-82
2022/06/13 05:24:06;;;;;;;8.57;3.28;;;;;;;14.54;73.81;101213.41;5025720;28;20046;-81
2022/06/13 05:26:32;;;;;;;9.85;3.58;;;;;;;14.71;72.37;101220.22;5005692;28;20041;-80
2022/06/13 05:29:02;;;;;;;10.45;3.80;;;;;;;14.78;72.05;101215.69;5010229;28;20618;-82
2022/06/13 05:31:30;;;;;;;6.45;2.78;;;;;;;14.81;71.88;101218.28;5012034;28;20045;-81
2022/06/13 05:33:58;;;;;;;9.05;2.97;;;;;;;14.87;71.76;101226.09;5010310;28;20037;-80
2022/06/13 05:36:27;;;;;;;8.95;3.10;;;;;;;14.99;71.49;101211.81;4991080;28;20049;-79
2022/06/13 05:39:01;;;;;;;7.95;3.83;;;;;;;15.14;70.70;101216.81;4991155;28;20049;-86
2022/06/13 05:41:29;;;;;;;9.77;3.17;;;;;;;15.31;70.03;101219.09;5008454;28;20052;-81
2022/06/13 05:43:56;;;;;;;5.40;2.67;;;;;;;15.50;68.95;101219.63;5010702;28;20049;-82
2022/06/13 05:46:33;;;;;;;10.60;2.92;;;;;;;15.68;68.10;101225.41;5011509;28;20049;-83
2022/06/13 05:49:02;;;;;;;4.95;2.53;;;;;;;15.77;67.60;101227.00;5013105;28;20099;-79
2022/06/13 05:51:29;;;;;;;11.10;3.47;;;;;;;15.77;67.41;101233.13;5022445;28;20092;-82
2022/06/13 05:53:57;;;;;;;10.05;3.15;;;;;;;15.78;66.97;101226.94;5008889;28;20144;-81
2022/06/13 05:56:25;;;;;;;8.30;2.97;;;;;;;15.69;66.56;101221.88;5028635;28;20239;-81
2022/06/13 05:58:53;;;;;;;10.07;3.00;;;;;;;15.53;67.18;101227.47;4997590;28;20068;-81
2022/06/13 06:01:29;;;;;;;7.60;3.17;;;;;;;15.53;67.43;101221.34;5010859;28;20063;-80
2022/06/13 06:03:56;;;;;;;6.25;2.45;;;;;;;15.52;67.62;101235.41;5015309;28;20480;-81
2022/06/13 06:06:28;;;;;;;8.43;3.65;;;;;;;15.55;67.23;101237.97;5000019;28;20514;-80
2022/06/13 06:08:55;;;;;;;11.80;3.25;;;;;;;15.54;67.36;101237.13;5017296;28;20053;-80
2022/06/13 06:11:24;;;;;;;6.43;2.88;;;;;;;15.61;67.26;101234.38;4999272;28;20073;-82
2022/06/13 06:13:52;;;;;;;9.77;3.60;;;;;;;15.61;67.39;101229.94;5013546;28;20116;-81
2022/06/13 06:16:23;;;;;;;12.65;3.53;;;;;;;15.62;67.62;101238.72;4999696;28;20045;-81
2022/06/13 06:18:51;;;;;;;14.18;3.58;;;;;;;15.58;68.18;101243.22;4996948;28;20041;-81
2022/06/13 06:21:18;;;;;;;7.03;2.85;;;;;;;15.59;68.01;101242.31;5009778;28;20080;-82
2022/06/13 06:23:45;;;;;;;10.63;4.30;;;;;;;15.80;67.81;101246.28;5011472;28;20068;-80
2022/06/13 06:26:24;;;;;;;9.63;4.28;;;;;;;16.05;66.96;101243.13;5016164;28;20045;-81
2022/06/13 06:28:54;;;;;;;13.75;4.00;;;;;;;16.25;65.87;101247.09;5014751;28;20081;-83
2022/06/13 06:31:25;;;;;;;12.30;4.18;;;;;;;16.41;65.34;101244.97;4995664;28;20421;-82
2022/06/13 06:33:54;;;;;;;6.43;3.20;;;;;;;16.38;64.94;101238.81;5008322;28;20057;-80
2022/06/13 06:36:23;;;;;;;8.48;3.03;;;;;;;16.25;65.66;101242.66;5033567;28;20120;-82
2022/06/13 06:38:52;;;;;;;8.77;3.05;;;;;;;16.20;65.98;101250.72;5031630;28;20033;-81
2022/06/13 06:41:19;;;;;;;8.88;2.65;;;;;;;16.24;66.05;101246.22;5007306;28;20736;-79
2022/06/13 06:43:47;;;;;;;5.25;3.00;;;;;;;16.25;66.24;101250.59;5017685;28;20050;-83
2022/06/13 06:46:15;;;;;;;7.25;2.72;;;;;;;16.27;66.27;101240.88;4998975;28;20107;-82
2022/06/13 06:48:42;;;;;;;8.07;3.92;;;;;;;16.27;66.32;101245.28;5015810;28;20117;-82
2022/06/13 06:51:14;;;;;;;10.70;3.80;;;;;;;16.16;66.35;101246.38;5001223;28;20092;-80
2022/06/13 07:01:54;;;;;;;8.13;3.03;;;;;;;16.67;64.54;101244.31;5014219;28;20087;-79
2022/06/13 07:04:20;;;;;;;6.97;2.50;;;;;;;16.78;63.81;101244.94;5012494;28;20040;-81
2022/06/13 07:06:47;;;;;;;8.15;4.00;;;;;;;16.64;63.52;101241.75;5012939;28;20049;-83
2022/06/13 07:09:14;;;;;;;8.15;2.38;;;;;;;16.40;63.75;101251.13;4996082;28;20511;-82
2022/06/13 07:11:56;;;;;;;8.05;3.83;;;;;;;16.16;64.89;101253.44;5029836;28;20107;-81
2022/06/13 07:14:29;;;;;;;9.98;3.17;;;;;;;16.11;64.98;101248.25;4989587;28;20427;-82
2022/06/13 07:16:59;;;;;;;8.82;2.45;;;;;;;16.11;64.69;101245.63;5010276;28;20048;-82
2022/06/13 07:19:27;;;;;;;12.38;3.58;;;;;;;16.13;64.93;101251.75;4996343;28;20541;-84
2022/06/13 07:21:55;;;;;;;7.13;2.28;;;;;;;16.11;64.58;101253.53;5012288;28;20137;-86
2022/06/13 07:24:23;;;;;;;8.07;3.28;;;;;;;16.20;64.42;101244.53;5011925;28;20046;-82
2022/06/13 07:26:51;;;;;;;9.32;3.38;;;;;;;16.27;64.33;101243.53;5009417;28;20238;-80
2022/06/13 07:29:18;;;;;;;10.93;3.15;;;;;;;16.55;62.88;101242.84;5010864;28;20519;-83
2022/06/13 07:31:58;;;;;;;8.93;3.08;;;;;;;16.75;62.64;101245.00;4995273;28;20122;-81
2022/06/13 07:34:33;;;;;;;10.15;2.60;;;;;;;17.29;61.21;101238.31;5011343;28;20041;-82
2022/06/13 07:37:06;;;;;;;6.75;2.05;;;;;;;17.61;59.08;101254.19;4993742;28;20140;-81
2022/06/13 07:39:35;;;;;;;8.13;2.80;;;;;;;17.63;59.25;101242.66;5011243;28;20084;-83
2022/06/13 07:42:07;;;;;;;4.00;2.38;;;;;;;18.18;57.79;101234.00;4993385;28;20094;-83
2022/06/13 07:44:42;;;;;;;7.55;2.60;;;;;;;18.63;56.80;101243.13;5008954;28;20050;-80
2022/06/13 07:47:17;;;;;;;8.98;2.65;;;;;;;19.13;55.23;101237.06;4997961;28;20101;-79
2022/06/13 07:49:47;;;;;;;7.05;2.58;;;;;;;19.62;53.87;101229.97;5010532;28;20059;-79
2022/06/13 07:52:14;;;;;;;6.32;2.95;;;;;;;20.25;51.77;101234.66;4992207;28;20038;-79
2022/06/13 07:54:46;;;;;;;9.38;3.00;;;;;;;20.54;49.67;101229.06;4994121;28;20059;-82
2022/06/13 07:57:16;;;;;;;3.65;1.75;;;;;;;20.33;49.28;101229.88;5013208;28;20056;-83
2022/06/13 07:59:43;;;;;;;9.75;4.03;;;;;;;20.16;49.13;101240.34;5009292;28;20563;-81
2022/06/13 08:02:17;;;;;;;9.75;3.03;;;;;;;20.23;49.15;101239.16;5013371;28;20060;-81
2022/06/13 08:04:59;;;;;;;10.93;3.25;;;;;;;20.15;48.43;101243.91;5015620;28;20071;-83
2022/06/13 08:07:26;;;;;;;11.52;2.97;;;;;;;20.70;47.54;101239.97;4997091;28;20056;-82
2022/06/13 08:09:53;;;;;;;5.13;2.10;;;;;;;21.35;45.47;101247.81;4991937;28;20048;-80
2022/06/13 08:12:22;;;;;;;2.50;1.60;;;;;;;21.83;43.36;101243.88;4995826;28;20045;-80
2022/06/13 08:14:50;;;;;;;5.63;1.60;;;;;;;22.20;42.38;101247.47;4994900;28;20054;-83
2022/06/13 08:17:23;;;;;;;3.97;1.90;;;;;;;22.63;41.47;101248.03;5028035;28;20128;-79
2022/06/13 08:19:58;;;;;;;5.90;1.73;;;;;;;22.80;39.74;101247.19;4998586;28;20052;-81
2022/06/13 08:22:26;;;;;;;6.28;1.80;;;;;;;22.49;41.21;101242.53;5014959;28;20132;-83
2022/06/13 08:25:00;;;;;;;7.20;2.00;;;;;;;22.80;40.27;101246.28;5013526;28;20049;-83
2022/06/13 08:27:31;;;;;;;5.53;2.10;;;;;;;23.72;39.62;101251.28;5016184;28;20047;-81
2022/06/13 08:30:01;;;;;;;3.95;1.70;;;;;;;24.23;36.89;101239.59;5029703;28;20049;-81
2022/06/13 08:32:29;;;;;;;8.43;2.17;;;;;;;24.00;37.94;101236.44;5023085;28;20060;-84
2022/06/13 08:34:56;;;;;;;6.00;1.70;;;;;;;23.84;37.96;101251.56;5033073;28;20096;-79
2022/06/13 08:37:23;;;;;;;3.33;1.48;;;;;;;23.99;36.78;101247.19;5009135;28;20136;-80
2022/06/13 08:39:50;;;;;;;2.47;1.92;;;;;;;24.10;35.92;101247.47;4999462;28;20045;-80
2022/06/13 08:42:33;;;;;;;5.95;2.80;;;;;;;23.91;36.23;101244.94;5015345;28;20036;-81
2022/06/13 08:45:25;;;;;;;4.38;1.52;;;;;;;24.26;36.40;101248.31;5018028;28;20136;-80
2022/06/13 08:48:26;;;;;;;7.07;2.08;;;;;;;24.36;34.65;101245.13;5013875;28;20056;-85
2022/06/13 08:51:14;;;;;;;4.82;2.00;;;;;;;23.41;35.74;101246.75;5019131;28;20060;-81
2022/06/13 08:54:00;;;;;;;6.78;1.70;;;;;;;22.39;38.04;101258.09;4995393;28;20068;-81
2022/06/13 08:56:36;;;;;;;7.40;1.63;;;;;;;22.42;38.56;101259.75;5016842;28;20037;-82
2022/06/13 08:59:26;;;;;;;6.32;1.90;;;;;;;23.13;36.34;101246.38;5015827;28;20069;-80
2022/06/13 09:02:23;;;;;;;6.85;2.60;;;;;;;23.37;35.88;101243.38;5014094;28;20037;-82
2022/06/13 09:05:34;;;;;;;3.05;1.25;;;;;;;23.71;35.15;101244.22;4991665;28;20366;-82
2022/06/13 09:08:19;;;;;;;6.18;1.75;;;;;;;23.35;35.67;101244.41;5009598;28;20037;-84
2022/06/13 09:11:03;;;;;;;6.50;2.28;;;;;;;22.44;37.30;101248.06;5007621;28;20060;-84
2022/06/13 09:13:41;;;;;;;6.78;1.90;;;;;;;21.43;38.50;101249.22;5023527;28;20041;-82
2022/06/13 09:16:36;;;;;;;6.30;1.63;;;;;;;20.38;40.87;101247.47;5024136;28;20137;-81
2022/06/13 09:19:32;;;;;;;4.93;1.42;;;;;;;19.78;43.06;101254.16;5025324;28;20029;-85
2022/06/13 09:22:24;;;;;;;4.28;1.75;;;;;;;19.28;44.10;101259.53;4990125;28;20108;-83
2022/06/13 09:25:40;;;;;;;5.82;1.63;;;;;;;19.23;45.29;101258.81;4996156;28;20499;-83
2022/06/13 09:28:36;;;;;;;7.85;2.40;;;;;;;20.95;41.55;101251.28;5027633;28;20083;-79
2022/06/13 09:31:19;;;;;;;10.98;3.17;;;;;;;22.53;38.91;101253.88;5007368;28;20050;-80
2022/06/13 09:34:20;;;;;;;6.25;2.17;;;;;;;24.23;35.69;101234.25;4991395;28;20056;-79
2022/06/13 09:37:09;;;;;;;5.95;1.65;;;;;;;26.25;31.87;101235.34;5006871;28;20567;-81
2022/06/13 09:39:38;;;;;;;3.20;1.13;;;;;;;26.39;31.25;101237.13;5009955;28;20614;-85
2022/06/13 09:43:00;;;;;;;4.40;1.33;;;;;;;24.87;31.90;101251.03;5011623;28;20077;-81
2022/06/13 09:45:36;;;;;;;5.43;1.65;;;;;;;22.55;36.89;101268.03;5014650;28;20049;-80
2022/06/13 09:48:27;;;;;;;5.88;2.58;;;;;;;21.02;41.15;101289.16;5016884;28;20044;-85
2022/06/13 09:51:38;;;;;;;9.45;1.52;;;;;;;19.62;43.43;101316.72;5019596;28;20047;-83
2022/06/13 09:54:30;;;;;;;2.40;0.75;;;;;;;18.16;47.58;101344.44;5014926;28;20057;-82
2022/06/13 09:57:40;;;;;;;2.63;0.77;;;;;;;16.68;55.79;101363.22;5032061;28;20454;-86
2022/06/13 10:00:15;;;;;;;1.40;1.33;;;;;;;15.67;60.69;101361.78;5002564;28;20075;-83
2022/06/13 10:03:07;;;;;;;1.65;0.90;;;;;;;15.07;63.85;101335.59;5011979;28;20037;-82
2022/06/13 10:05:47;;;;;;;1.55;1.13;;;;;;;14.67;67.38;101324.78;4997678;28;20046;-84
2022/06/13 10:08:46;;;;;;;1.80;1.10;;;;;;;14.56;65.83;101322.28;5006144;28;20041;-82
2022/06/13 10:11:40;;;;;;;1.67;1.10;;;;;;;14.77;63.50;101319.38;4995430;28;20041;-80
2022/06/13 10:14:43;;;;;;;4.55;1.38;;;;;;;15.33;61.64;101304.38;5023905;28;20054;-82
2022/06/13 10:17:53;;;;;;;2.13;1.07;;;;;;;16.46;57.99;101304.72;5022679;28;20065;-83
2022/06/13 10:20:42;;;;;;;5.57;1.42;;;;;;;19.23;51.17;101293.31;4987735;28;20045;-83
2022/06/13 10:23:22;;;;;;;1.63;0.95;;;;;;;21.76;44.08;101282.41;4992102;28;20046;-82
2022/06/13 10:26:41;;;;;;;3.13;1.15;;;;;;;23.42;40.50;101265.34;5010237;28;20037;-81
2022/06/13 10:29:26;;;;;;;2.88;1.50;;;;;;;24.96;36.91;101267.53;4998541;28;20054;-80
2022/06/13 10:32:10;;;;;;;4.50;2.00;;;;;;;26.25;36.83;101274.75;5020017;28;20133;-81
2022/06/13 10:35:02;;;;;;;1.90;1.30;;;;;;;27.81;33.92;101264.13;5012760;28;20095;-81
2022/06/13 10:38:27;;;;;;;5.32;1.77;;;;;;;28.18;31.99;101263.28;5030021;28;20120;-80
2022/06/13 10:40:56;;;;;;;3.55;1.40;;;;;;;28.38;32.68;101268.06;4994542;28;20053;-80
2022/06/13 10:43:25;;;;;;;3.42;1.55;;;;;;;28.92;31.21;101278.47;5011870;28;20047;-81
2022/06/13 10:46:08;;;;;;;1.98;1.33;;;;;;;27.66;33.29;101303.72;5012156;28;20417;-82
2022/06/13 10:48:55;;;;;;;4.00;1.30;;;;;;;25.61;35.85;101307.38;5000253;28;20073;-82
2022/06/13 10:51:22;;;;;;;1.50;1.35;;;;;;;22.78;42.48;101307.78;5009553;28;20535;-83
2022/06/13 10:53:57;;;;;;;1.67;1.00;;;;;;;20.85;49.16;101308.50;5028645;28;20496;-82
2022/06/13 10:56:46;;;;;;;4.57;1.52;;;;;;;19.43;53.43;101320.03;5010340;28;20083;-83
2022/06/13 10:59:29;;;;;;;2.65;1.25;;;;;;;18.81;57.08;101322.13;5002123;28;20483;-82
2022/06/13 11:02:01;;;;;;;2.85;1.20;;;;;;;18.50;56.06;101325.75;5006857;28;20120;-80
2022/06/13 11:04:37;;;;;;;5.43;1.58;;;;;;;18.23;57.20;101331.91;5010400;28;20092;-80
2022/06/13 11:07:19;;;;;;;6.05;2.38;;;;;;;17.89;57.56;101335.50;5011278;28;20112;-83
2022/06/13 11:09:49;;;;;;;6.38;2.35;;;;;;;18.07;56.46;101331.47;5019201;28;20045;-81
2022/06/13 11:12:33;;;;;;;2.33;1.48;;;;;;;20.05;51.67;101323.16;5006461;28;20053;-79
2022/06/13 11:23:58;;;;;;;2.92;1.80;;;;;;;21.24;42.60;101325.53;5008122;28;20104;-84
2022/06/13 11:29:18;;;;;;;7.05;2.10;;;;;;;17.27;60.72;101353.06;5012015;28;20025;-80
2022/06/13 11:31:56;;;;;;;3.67;1.40;;;;;;;16.02;66.89;101360.28;5004872;28;20258;-80
2022/06/13 11:34:39;;;;;;;6.03;1.58;;;;;;;15.39;70.78;101380.75;4986624;28;20080;-84
2022/06/13 11:37:24;;;;;;;3.13;1.98;;;;;;;15.11;73.90;101368.91;4997720;28;20048;-84
2022/06/13 11:39:54;;;;;;;3.70;1.52;;;;;;;15.11;74.46;101383.00;4994103;28;20406;-84
2022/06/13 11:42:28;;;;;;;3.42;1.40;;;;;;;15.24;73.11;101374.88;5008086;28;20049;-82
2022/06/13 11:45:01;;;;;;;1.67;0.60;;;;;;;15.27;70.68;101377.47;4991743;28;20085;-85
2022/06/13 11:47:42;;;;;;;1.67;0.88;;;;;;;15.34;69.04;101382.63;5012230;28;20038;-82
2022/06/13 11:50:36;;;;;;;0.90;0.52;;;;;;;15.51;69.09;101373.53;5011586;28;20053;-83
2022/06/13 11:56:00;;;;;;;2.15;0.50;;;;;;;17.55;60.08;101373.50;5012530;28;20040;-82
2022/06/13 11:58:33;;;;;;;5.80;1.08;;;;;;;19.36;54.38;101362.78;5012210;28;20105;-82
2022/06/13 12:01:23;;;;;;;2.00;0.63;;;;;;;21.55;47.50;101359.69;5010545;28;20069;-80
2022/06/13 12:04:05;;;;;;;2.60;0.47;;;;;;;24.11;42.80;101349.00;5013973;28;20059;-83
2022/06/13 12:06:48;;;;;;;0.63;0.35;;;;;;;26.40;38.64;101345.38;5012731;28;20041;-85
2022/06/13 12:09:31;;;;;;;0.95;0.75;;;;;;;28.00;34.56;101347.09;5010973;28;20514;-84
2022/06/13 12:12:04;;;;;;;1.60;0.47;;;;;;;28.33;33.60;101345.63;5014150;28;20099;-83
2022/06/13 12:14:39;;;;;;;1.20;0.43;;;;;;;27.59;33.95;101339.25;4995484;28;20332;-88
2022/06/13 12:17:18;;;;;;;1.42;0.77;;;;;;;27.79;33.25;101344.06;5011566;28;20148;-85
2022/06/13 12:20:00;;;;;;;1.58;0.55;;;;;;;27.61;34.06;101342.69;5001729;28;20064;-83
2022/06/13 12:22:52;;;;;;;1.65;0.60;;;;;;;26.59;33.99;101345.00;5024672;28;20141;-85
2022/06/13 12:25:23;;;;;;;1.48;0.43;;;;;;;25.48;37.09;101343.94;5024540;28;20099;-84
2022/06/13 12:28:25;;;;;;;0.40;0.40;;;;;;;24.96;38.31;101348.72;5019277;28;20037;-82
2022/06/13 12:31:01;;;;;;;0.73;0.40;;;;;;;24.77;38.62;101347.13;4995542;28;20065;-81
2022/06/13 12:33:55;;;;;;;2.67;0.40;;;;;;;24.00;38.21;101342.53;5014429;28;20046;-81
2022/06/13 12:36:41;;;;;;;;;;;;;;;25.37;36.46;101348.13;5008993;28;20046;-82
2022/06/13 12:39:40;;;;;;;2.35;0.30;;;;;;;27.44;33.16;101336.66;5018724;28;20440;-81
2022/06/13 12:42:56;;;;;;;0.47;0.45;;;;;;;28.84;29.53;101333.78;4994957;28;20053;-82
2022/06/13 12:45:48;;;;;;;2.70;0.40;;;;;;;29.62;29.15;101320.66;5010750;28;20156;-82
2022/06/13 12:48:49;;;;;;;1.65;0.40;;;;;;;27.49;30.96;101322.91;5027207;28;20073;-81